Time;durP1;ratioP1;P1;durP2;ratioP2;P2;SDS_P1;SDS_P2;PMS_P1;PMS_P2;Temp;Humidity;BMP_temperature;BMP_pressure;BME280_temperature;BME280_humidity;BME280_pressure;Samples;Min_cycle;Max_cycle;Signal;HPM_P1;HPM_P2
2022/06/27 00:01:09;;;;;;;4.13;3.77;;;20.90;99.90;;;;;;5070142;28;20188;-71
2022/06/27 00:03:35;;;;;;;4.13;3.73;;;20.80;99.90;;;;;;5069936;28;20631;-70
2022/06/27 00:06:00;;;;;;;3.37;3.07;;;20.70;99.90;;;;;;5051884;28;20229;-71
2022/06/27 00:08:26;;;;;;;8.60;4.03;;;20.60;99.90;;;;;;5069988;28;20237;-71
2022/06/27 00:10:52;;;;;;;4.60;4.20;;;20.50;99.90;;;;;;5070186;28;20702;-71
2022/06/27 00:13:17;;;;;;;4.80;3.80;;;20.40;99.90;;;;;;5053041;28;20309;-71
2022/06/27 00:15:43;;;;;;;6.70;3.77;;;20.40;99.90;;;;;;5070573;28;20203;-71
2022/06/27 00:18:09;;;;;;;4.47;4.03;;;20.40;99.90;;;;;;5069516;28;20238;-70
2022/06/27 00:20:34;;;;;;;4.47;3.50;;;20.30;99.90;;;;;;5051589;28;20182;-71
2022/06/27 00:23:00;;;;;;;3.70;3.40;;;20.30;99.90;;;;;;5035027;28;20225;-71
2022/06/27 00:25:26;;;;;;;3.27;3.07;;;20.30;99.90;;;;;;5051559;28;20187;-71
2022/06/27 00:27:51;;;;;;;3.93;3.60;;;20.20;99.90;;;;;;5051165;28;20202;-71
2022/06/27 00:30:17;;;;;;;4.40;3.73;;;20.10;99.90;;;;;;5069468;28;20190;-70
2022/06/27 00:32:43;;;;;;;4.77;3.33;;;20.00;99.90;;;;;;5069255;28;20225;-71
2022/06/27 00:35:09;;;;;;;5.87;3.93;;;20.00;99.90;;;;;;5050384;28;20589;-71
2022/06/27 00:37:35;;;;;;;6.00;4.53;;;20.00;99.90;;;;;;5069297;28;20198;-70
2022/06/27 00:40:01;;;;;;;4.23;3.83;;;19.90;99.90;;;;;;5051050;28;20421;-70
2022/06/27 00:42:27;;;;;;;4.27;3.87;;;19.90;99.90;;;;;;5069053;28;20428;-71
2022/06/27 00:44:53;;;;;;;5.83;3.20;;;19.80;99.90;;;;;;5069490;28;20419;-70
2022/06/27 00:47:18;;;;;;;4.50;3.40;;;19.60;99.90;;;;;;5051319;28;20268;-70
2022/06/27 00:49:44;;;;;;;3.70;3.40;;;19.60;99.90;;;;;;5050728;28;20242;-70
2022/06/27 00:52:12;;;;;;;6.07;4.43;;;19.50;99.90;;;;;;5068723;28;20244;-70
2022/06/27 00:54:40;;;;;;;3.70;3.40;;;19.50;99.90;;;;;;5068879;28;20708;-70
2022/06/27 00:57:07;;;;;;;18.50;4.50;;;19.40;99.90;;;;;;5050899;28;20434;-70
2022/06/27 00:59:33;;;;;;;34.43;6.53;;;19.20;99.90;;;;;;5068780;28;20447;-71
2022/06/27 01:01:59;;;;;;;24.57;5.83;;;19.10;99.90;;;;;;5050607;28;20440;-70
2022/06/27 01:04:25;;;;;;;7.00;3.10;;;18.90;99.90;;;;;;5050453;28;21071;-71
2022/06/27 01:06:54;;;;;;;3.97;2.90;;;18.80;99.90;;;;;;5068153;28;20433;-71
2022/06/27 01:09:21;;;;;;;9.80;2.90;;;18.60;99.90;;;;;;5068566;28;20437;-71
2022/06/27 01:11:46;;;;;;;5.70;2.63;;;18.30;99.90;;;;;;5050633;28;20554;-71
2022/06/27 01:14:12;;;;;;;2.40;2.20;;;18.30;99.90;;;;;;5068544;28;20453;-71
2022/06/27 01:16:39;;;;;;;5.43;2.80;;;18.20;99.90;;;;;;5068630;28;20640;-71
2022/06/27 01:19:11;;;;;;;2.77;2.57;;;18.30;99.90;;;;;;5068641;28;20579;-71
2022/06/27 01:21:44;;;;;;;2.43;1.87;;;18.30;99.90;;;;;;5051153;28;20511;-71
2022/06/27 01:24:10;;;;;;;2.13;1.90;;;18.20;99.90;;;;;;5068530;28;20447;-71
2022/06/27 01:26:36;;;;;;;3.77;1.73;;;18.20;99.90;;;;;;5068752;28;20425;-71
2022/06/27 01:29:02;;;;;;;2.10;1.90;;;18.20;99.90;;;;;;5068530;28;20282;-71
2022/06/27 01:31:28;;;;;;;2.70;1.97;;;18.20;99.90;;;;;;5068241;28;20222;-71
2022/06/27 01:33:54;;;;;;;4.60;1.70;;;18.20;99.90;;;;;;5068272;28;20909;-71
2022/06/27 01:39:04;;;;;;;3.50;2.20;;;18.10;99.90;;;;;;5068315;28;20260;-71
2022/06/27 01:41:30;;;;;;;3.60;1.90;;;18.10;99.90;;;;;;5068523;28;20522;-71
2022/06/27 01:43:56;;;;;;;2.90;2.60;;;18.10;99.90;;;;;;5068524;28;20516;-71
2022/06/27 01:46:21;;;;;;;3.17;2.40;;;18.10;99.90;;;;;;5050524;28;20228;-71
2022/06/27 01:48:47;;;;;;;2.07;1.77;;;18.10;99.90;;;;;;5050591;28;20430;-70
2022/06/27 01:51:13;;;;;;;4.10;1.77;;;18.00;99.90;;;;;;5050417;28;20755;-70
2022/06/27 01:53:39;;;;;;;3.10;1.47;;;18.00;99.90;;;;;;5034173;28;20277;-71
2022/06/27 01:56:05;;;;;;;2.13;1.50;;;18.00;99.90;;;;;;5068895;28;20495;-71
2022/06/27 01:58:32;;;;;;;2.80;1.60;;;18.00;99.90;;;;;;5068727;28;20941;-71
2022/06/27 02:00:58;;;;;;;3.27;1.43;;;18.00;99.90;;;;;;5051214;28;20954;-71
2022/06/27 02:03:24;;;;;;;2.17;0.93;;;17.90;99.90;;;;;;5069258;28;20432;-71
2022/06/27 02:05:53;;;;;;;0.93;0.83;;;17.90;99.90;;;;;;5050888;28;20231;-71
2022/06/27 02:08:21;;;;;;;2.70;1.10;;;18.00;99.90;;;;;;5051010;28;20210;-71
2022/06/27 02:10:47;;;;;;;1.40;1.10;;;17.90;99.90;;;;;;5068938;28;20464;-71
2022/06/27 02:13:13;;;;;;;1.10;1.00;;;17.90;99.90;;;;;;5068832;28;20421;-71
2022/06/27 02:16:06;;;;;;;2.40;1.30;;;18.00;99.90;;;;;;5050544;28;20423;-70
2022/06/27 02:18:34;;;;;;;6.40;1.50;;;18.00;99.90;;;;;;5055728;28;20503;-70
2022/06/27 02:21:00;;;;;;;3.57;1.60;;;18.00;99.90;;;;;;5068193;28;20415;-71
2022/06/27 02:23:26;;;;;;;1.83;1.30;;;18.00;99.90;;;;;;5068169;28;20418;-71
2022/06/27 02:25:54;;;;;;;2.07;1.30;;;17.90;99.90;;;;;;5068182;28;20798;-71
2022/06/27 02:28:22;;;;;;;1.67;1.30;;;17.90;99.90;;;;;;5067851;28;20554;-71
2022/06/27 02:30:48;;;;;;;1.77;1.30;;;17.90;99.90;;;;;;5049856;28;21086;-71
2022/06/27 02:33:13;;;;;;;1.93;1.30;;;17.90;99.90;;;;;;5049756;28;20485;-71
2022/06/27 02:35:40;;;;;;;2.80;1.00;;;17.80;99.90;;;;;;5067812;28;20455;-71
2022/06/27 02:38:09;;;;;;;1.00;0.90;;;17.80;99.90;;;;;;5049748;28;20210;-71
2022/06/27 02:40:36;;;;;;;2.37;1.30;;;17.70;99.90;;;;;;5067868;28;20447;-71
2022/06/27 02:43:02;;;;;;;1.93;1.00;;;17.70;99.90;;;;;;5049721;28;20931;-71
2022/06/27 02:45:32;;;;;;;1.87;1.17;;;17.70;99.90;;;;;;5049627;28;20417;-71
2022/06/27 02:47:58;;;;;;;2.40;1.00;;;17.50;99.90;;;;;;5067736;28;20440;-71
2022/06/27 02:50:26;;;;;;;2.60;1.20;;;17.50;99.90;;;;;;5067380;28;20418;-71
2022/06/27 02:52:56;;;;;;;1.63;1.20;;;17.50;99.90;;;;;;5049494;28;20465;-71
2022/06/27 02:55:28;;;;;;;1.73;0.80;;;17.60;99.90;;;;;;5067612;28;20442;-71
2022/06/27 02:58:02;;;;;;;1.43;1.00;;;17.50;99.90;;;;;;5067680;28;21070;-71
2022/06/27 03:00:29;;;;;;;6.37;1.10;;;17.60;99.90;;;;;;5071180;28;20427;-71
2022/06/27 03:02:56;;;;;;;1.40;0.80;;;17.60;99.90;;;;;;5052931;28;20528;-71
2022/06/27 03:05:22;;;;;;;3.03;0.87;;;17.50;99.90;;;;;;5071216;28;20420;-71
2022/06/27 03:07:48;;;;;;;1.17;1.07;;;17.40;99.90;;;;;;5071182;28;20422;-71
2022/06/27 03:10:14;;;;;;;4.93;1.10;;;17.30;99.90;;;;;;5052995;28;20938;-71
2022/06/27 03:12:40;;;;;;;1.13;0.80;;;17.20;99.90;;;;;;5071086;28;20674;-71
2022/06/27 03:15:07;;;;;;;6.30;1.10;;;17.00;99.90;;;;;;5070919;28;21003;-71
2022/06/27 03:17:33;;;;;;;1.00;0.90;;;17.00;99.90;;;;;;5052731;28;20455;-71
2022/06/27 03:19:58;;;;;;;2.80;0.90;;;17.00;99.90;;;;;;5070843;28;20467;-71
2022/06/27 03:22:24;;;;;;;3.27;1.00;;;17.00;99.90;;;;;;5052839;28;20194;-71
2022/06/27 03:24:50;;;;;;;1.23;0.93;;;17.00;99.90;;;;;;5070684;28;20709;-71
2022/06/27 03:27:16;;;;;;;1.13;0.90;;;17.00;99.90;;;;;;5070749;28;20217;-71
2022/06/27 03:29:41;;;;;;;3.03;1.17;;;16.90;99.90;;;;;;5070578;28;20205;-71
2022/06/27 03:32:08;;;;;;;0.93;0.77;;;16.90;99.90;;;;;;5070392;28;20279;-71
2022/06/27 03:34:33;;;;;;;1.53;1.03;;;16.90;99.90;;;;;;5035880;28;20201;-73
2022/06/27 03:36:59;;;;;;;2.00;0.97;;;16.80;99.90;;;;;;5052512;28;20416;-71
2022/06/27 03:39:25;;;;;;;1.13;0.93;;;16.90;99.90;;;;;;5052344;28;20259;-70
2022/06/27 03:41:51;;;;;;;2.90;1.27;;;16.90;99.90;;;;;;5070269;28;20182;-71
2022/06/27 03:44:17;;;;;;;2.73;1.40;;;16.80;99.90;;;;;;5052274;28;20427;-71
2022/06/27 03:46:43;;;;;;;1.80;0.90;;;16.80;99.90;;;;;;5070316;28;20191;-70
2022/06/27 03:51:54;;;;;;;1.37;1.10;;;17.00;99.90;;;;;;5070213;28;20570;-70
2022/06/27 03:54:20;;;;;;;3.23;1.27;;;17.10;99.90;;;;;;5071261;28;20414;-70
2022/06/27 03:56:46;;;;;;;1.30;1.10;;;17.20;99.90;;;;;;5070602;28;20779;-70
2022/06/27 03:59:12;;;;;;;1.07;0.97;;;17.20;99.90;;;;;;5051754;28;20204;-71
2022/06/27 04:01:38;;;;;;;1.57;0.90;;;17.30;99.90;;;;;;5069612;28;20478;-70
2022/06/27 04:04:05;;;;;;;1.37;0.97;;;17.40;99.90;;;;;;5068513;28;20973;-70
2022/06/27 04:06:31;;;;;;;1.10;1.00;;;17.30;99.90;;;;;;5050835;28;20467;-71
2022/06/27 04:08:58;;;;;;;1.10;1.00;;;17.20;99.90;;;;;;5050683;28;20453;-70
2022/06/27 04:11:23;;;;;;;1.47;1.13;;;17.20;99.90;;;;;;5050293;28;20460;-70
2022/06/27 04:13:49;;;;;;;1.27;1.03;;;17.10;99.90;;;;;;5068397;28;20498;-70
2022/06/27 04:16:15;;;;;;;1.20;1.10;;;17.10;99.90;;;;;;5050472;28;20235;-70
2022/06/27 04:18:40;;;;;;;1.70;0.93;;;17.10;99.90;;;;;;5050533;28;20270;-70
2022/06/27 04:21:06;;;;;;;4.00;1.27;;;17.20;99.90;;;;;;5068331;28;20186;-71
2022/06/27 04:23:32;;;;;;;1.57;0.80;;;17.20;99.90;;;;;;5050368;28;20195;-70
2022/06/27 04:25:58;;;;;;;1.20;1.10;;;17.10;99.90;;;;;;5068471;28;20181;-70
2022/06/27 04:28:23;;;;;;;1.03;0.80;;;17.10;99.90;;;;;;5050234;28;20440;-71
2022/06/27 04:30:49;;;;;;;2.10;1.10;;;17.10;99.90;;;;;;5050441;28;20190;-70
2022/06/27 04:33:15;;;;;;;2.63;1.00;;;17.10;99.90;;;;;;5068461;28;20197;-70
2022/06/27 04:35:41;;;;;;;2.27;1.10;;;17.20;99.90;;;;;;5050540;28;20224;-70
2022/06/27 04:38:06;;;;;;;1.60;1.07;;;17.10;99.90;;;;;;5050679;28;20535;-70
2022/06/27 04:40:32;;;;;;;1.70;1.40;;;17.20;99.90;;;;;;5068460;28;20428;-70
2022/06/27 04:42:59;;;;;;;1.77;1.10;;;17.50;99.90;;;;;;5068180;28;20190;-70
2022/06/27 04:45:27;;;;;;;6.60;1.00;;;17.60;99.90;;;;;;5050749;28;20429;-70
2022/06/27 04:47:53;;;;;;;3.33;1.23;;;17.60;99.90;;;;;;5050097;28;20990;-70
2022/06/27 04:50:21;;;;;;;1.17;1.07;;;17.90;99.90;;;;;;5067749;28;20917;-70
2022/06/27 04:52:49;;;;;;;1.10;1.00;;;18.00;99.90;;;;;;5049356;28;20916;-71
2022/06/27 04:55:15;;;;;;;1.33;1.10;;;18.10;99.90;;;;;;5066800;28;20410;-71
2022/06/27 04:57:43;;;;;;;1.67;0.90;;;18.20;99.90;;;;;;5049010;28;20469;-70
2022/06/27 05:00:11;;;;;;;1.30;1.20;;;18.30;99.90;;;;;;5067329;28;20443;-71
2022/06/27 05:02:37;;;;;;;3.63;1.50;;;18.10;99.90;;;;;;5067326;28;20933;-70
2022/06/27 05:05:04;;;;;;;1.73;1.00;;;18.00;99.90;;;;;;5032844;28;20444;-71
2022/06/27 05:07:30;;;;;;;1.13;1.00;;;17.90;99.90;;;;;;5067372;28;20190;-71
2022/06/27 05:09:56;;;;;;;2.10;1.17;;;18.10;99.90;;;;;;5067589;28;20459;-71
2022/06/27 05:12:26;;;;;;;3.60;1.10;;;18.30;99.90;;;;;;5032469;28;20560;-71
2022/06/27 05:14:53;;;;;;;3.10;0.87;;;18.30;99.90;;;;;;5067163;28;20416;-71
2022/06/27 05:17:19;;;;;;;2.50;0.87;;;18.30;99.90;;;;;;5067044;28;20413;-71
2022/06/27 05:19:44;;;;;;;2.00;0.80;;;18.40;99.90;;;;;;5066868;28;20445;-71
2022/06/27 05:22:10;;;;;;;2.40;1.20;;;18.70;99.90;;;;;;5048479;28;20828;-71
2022/06/27 05:24:36;;;;;;;4.13;0.70;;;18.90;99.90;;;;;;5067102;28;20562;-71
2022/06/27 05:27:02;;;;;;;3.67;0.97;;;19.00;99.90;;;;;;5048935;28;20424;-71
2022/06/27 05:29:28;;;;;;;0.90;0.70;;;19.20;99.90;;;;;;5066926;28;20441;-71
2022/06/27 05:31:54;;;;;;;8.20;1.27;;;19.40;99.90;;;;;;5066803;28;21136;-71
2022/06/27 05:34:21;;;;;;;2.30;0.83;;;19.50;99.90;;;;;;5066805;28;20186;-71
2022/06/27 05:36:47;;;;;;;1.40;0.70;;;19.50;99.90;;;;;;5067008;28;21032;-71
2022/06/27 05:39:14;;;;;;;2.60;1.30;;;19.60;99.90;;;;;;5048598;28;21148;-71
2022/06/27 05:41:41;;;;;;;2.90;1.03;;;19.60;99.90;;;;;;5048833;28;20418;-71
2022/06/27 05:44:07;;;;;;;2.80;0.80;;;19.60;99.90;;;;;;5066941;28;20527;-72
2022/06/27 05:46:33;;;;;;;2.40;0.83;;;19.40;99.90;;;;;;5066844;28;20529;-72
2022/06/27 05:49:01;;;;;;;0.80;0.67;;;19.30;99.90;;;;;;5049085;28;20233;-71
2022/06/27 05:51:28;;;;;;;2.40;0.80;;;19.20;99.90;;;;;;5066916;28;21046;-71
2022/06/27 05:53:56;;;;;;;2.70;0.77;;;19.20;99.90;;;;;;5048354;28;20423;-71
2022/06/27 05:56:22;;;;;;;1.10;0.70;;;19.10;99.90;;;;;;5066823;28;20791;-71
2022/06/27 05:58:49;;;;;;;2.30;0.70;;;19.10;99.90;;;;;;5066914;28;20888;-71
2022/06/27 06:01:15;;;;;;;4.83;0.83;;;19.10;99.90;;;;;;5032030;28;20450;-71
2022/06/27 06:03:41;;;;;;;1.40;0.80;;;19.30;99.90;;;;;;5066723;28;20415;-71
2022/06/27 06:06:07;;;;;;;0.90;0.70;;;19.50;99.90;;;;;;5048757;28;20516;-71
2022/06/27 06:08:36;;;;;;;1.50;0.60;;;19.60;99.90;;;;;;5066569;28;20470;-71
2022/06/27 06:11:02;;;;;;;2.70;0.73;;;19.60;99.90;;;;;;5048143;28;20428;-71
2022/06/27 06:13:29;;;;;;;1.67;0.60;;;19.60;99.90;;;;;;5048176;28;20421;-70
2022/06/27 06:15:57;;;;;;;2.27;0.70;;;19.80;99.90;;;;;;5031993;28;20427;-70
2022/06/27 06:18:23;;;;;;;4.60;0.80;;;20.10;99.90;;;;;;5048142;28;20531;-70
2022/06/27 06:20:49;;;;;;;1.53;0.77;;;20.40;99.90;;;;;;5066476;28;20432;-71
2022/06/27 06:23:15;;;;;;;1.93;1.37;;;20.50;99.90;;;;;;5066549;28;20421;-70
2022/06/27 06:25:43;;;;;;;2.50;0.90;;;20.60;99.90;;;;;;5066503;28;20454;-71
2022/06/27 06:28:09;;;;;;;3.40;0.80;;;20.70;99.90;;;;;;5048634;28;20437;-70
2022/06/27 06:30:35;;;;;;;1.73;0.90;;;20.70;99.90;;;;;;5048617;28;20416;-70
2022/06/27 06:33:05;;;;;;;2.10;1.03;;;20.60;99.90;;;;;;5066640;28;20583;-70
2022/06/27 06:35:32;;;;;;;2.20;0.87;;;20.50;99.90;;;;;;5070846;28;20407;-70
2022/06/27 06:37:59;;;;;;;6.30;1.30;;;20.50;99.90;;;;;;5070600;28;20441;-70
2022/06/27 06:40:26;;;;;;;1.77;1.00;;;20.50;99.90;;;;;;5070908;28;20409;-70
2022/06/27 06:42:52;;;;;;;1.80;1.30;;;20.70;99.90;;;;;;5052684;28;20437;-70
2022/06/27 06:45:18;;;;;;;2.27;1.27;;;20.70;99.90;;;;;;5070767;28;21259;-70
2022/06/27 06:47:49;;;;;;;1.37;1.10;;;20.70;99.90;;;;;;5070475;28;20459;-70
2022/06/27 06:50:18;;;;;;;3.67;1.50;;;20.70;99.90;;;;;;5052438;28;20837;-71
2022/06/27 06:52:46;;;;;;;2.60;1.70;;;20.80;99.90;;;;;;5070249;28;20469;-70
2022/06/27 06:55:12;;;;;;;2.17;1.37;;;20.80;99.90;;;;;;5052027;28;20450;-70
2022/06/27 06:57:38;;;;;;;2.93;1.10;;;21.00;99.90;;;;;;5051720;28;21118;-70
2022/06/27 07:00:06;;;;;;;3.33;1.47;;;21.00;99.90;;;;;;5051586;28;20432;-70
2022/06/27 07:02:32;;;;;;;2.13;1.57;;;20.80;99.90;;;;;;5069408;28;20941;-70
2022/06/27 07:04:58;;;;;;;4.17;1.37;;;20.70;99.90;;;;;;5034744;28;20433;-70
2022/06/27 07:07:25;;;;;;;2.73;1.30;;;20.60;99.90;;;;;;5051411;28;20805;-70
2022/06/27 07:09:51;;;;;;;3.80;1.77;;;20.40;99.90;;;;;;5069602;28;20923;-70
2022/06/27 07:12:18;;;;;;;1.47;1.10;;;20.30;99.90;;;;;;5069272;28;20875;-70
2022/06/27 07:14:45;;;;;;;2.60;1.13;;;20.30;99.90;;;;;;5069581;28;20413;-70
2022/06/27 07:17:11;;;;;;;1.03;0.93;;;20.30;99.90;;;;;;5051198;28;20429;-70
2022/06/27 07:19:38;;;;;;;2.20;1.63;;;20.50;99.90;;;;;;5069322;28;20438;-70
2022/06/27 07:22:06;;;;;;;5.27;1.30;;;20.50;99.90;;;;;;5069378;28;20418;-70
2022/06/27 07:24:32;;;;;;;1.30;1.20;;;20.60;99.90;;;;;;5050950;28;20818;-70
2022/06/27 07:26:59;;;;;;;1.63;1.53;;;20.60;99.90;;;;;;5069045;28;20417;-70
2022/06/27 07:29:26;;;;;;;2.40;1.50;;;20.50;99.90;;;;;;5050567;28;20560;-70
2022/06/27 07:31:53;;;;;;;2.17;1.30;;;20.50;99.90;;;;;;5068818;28;20477;-70
2022/06/27 07:34:21;;;;;;;1.93;1.50;;;20.60;99.90;;;;;;5069068;28;20420;-70
2022/06/27 07:36:47;;;;;;;3.37;1.50;;;20.60;99.90;;;;;;5051244;28;20506;-71
2022/06/27 07:39:13;;;;;;;1.93;1.13;;;20.60;99.90;;;;;;5069618;28;20853;-71
2022/06/27 07:41:39;;;;;;;3.93;1.03;;;20.70;99.90;;;;;;5069719;28;20413;-71
2022/06/27 07:44:05;;;;;;;1.77;1.20;;;20.80;99.90;;;;;;5068604;28;20202;-70
2022/06/27 07:46:34;;;;;;;1.90;1.33;;;20.80;99.90;;;;;;5017431;28;20434;-71
2022/06/27 07:49:00;;;;;;;3.70;1.30;;;20.80;99.90;;;;;;5051061;28;20445;-71
2022/06/27 07:51:26;;;;;;;4.10;1.43;;;20.70;99.90;;;;;;5068265;28;20545;-71
2022/06/27 07:53:52;;;;;;;1.20;1.10;;;20.80;99.90;;;;;;5068579;28;20421;-70
2022/06/27 07:56:20;;;;;;;1.50;1.40;;;20.80;99.90;;;;;;5033610;28;20428;-71
2022/06/27 07:58:48;;;;;;;1.93;1.00;;;21.00;99.90;;;;;;5068474;28;20737;-70
2022/06/27 08:01:15;;;;;;;2.03;1.40;;;21.20;99.90;;;;;;5049925;28;20444;-71
2022/06/27 08:03:44;;;;;;;3.53;1.63;;;21.30;99.90;;;;;;5050182;28;20425;-70
2022/06/27 08:06:14;;;;;;;1.27;1.00;;;21.50;99.90;;;;;;5049993;28;21084;-71
2022/06/27 08:08:42;;;;;;;2.90;1.23;;;21.80;99.90;;;;;;5050005;28;20467;-70
2022/06/27 08:11:11;;;;;;;3.33;1.20;;;22.10;99.90;;;;;;5068035;28;20461;-70
2022/06/27 08:13:38;;;;;;;3.10;1.40;;;22.00;99.90;;;;;;5050389;28;20432;-70
2022/06/27 08:16:05;;;;;;;1.40;0.80;;;22.10;99.90;;;;;;5050310;28;20414;-70
2022/06/27 08:18:32;;;;;;;1.87;1.00;;;22.40;99.90;;;;;;5068257;28;20426;-70
2022/06/27 08:21:01;;;;;;;1.90;1.07;;;22.40;99.90;;;;;;5068302;28;20416;-70
2022/06/27 08:23:27;;;;;;;2.67;1.30;;;22.60;99.90;;;;;;5050162;28;20450;-70
2022/06/27 08:25:53;;;;;;;1.87;1.33;;;22.60;99.90;;;;;;5050313;28;20530;-71
2022/06/27 08:28:20;;;;;;;2.27;1.30;;;22.80;99.90;;;;;;5068765;28;20686;-70
2022/06/27 08:30:47;;;;;;;1.27;1.10;;;22.90;99.90;;;;;;5068716;28;20796;-70
2022/06/27 08:33:13;;;;;;;4.93;1.23;;;22.90;99.90;;;;;;5068577;28;20514;-70
2022/06/27 08:35:47;;;;;;;2.70;1.10;;;22.80;99.90;;;;;;5050776;28;20473;-70
2022/06/27 08:38:15;;;;;;;1.40;0.93;;;22.70;99.90;;;;;;5068428;28;21213;-70
2022/06/27 08:40:41;;;;;;;1.57;1.13;;;22.50;99.90;;;;;;5068281;28;20453;-70
2022/06/27 08:43:10;;;;;;;0.93;0.80;;;22.50;99.90;;;;;;5068144;28;20417;-70
2022/06/27 08:45:36;;;;;;;4.23;1.43;;;22.40;99.90;;;;;;5068035;28;20449;-70
2022/06/27 08:48:07;;;;;;;3.03;1.13;;;22.40;99.90;;;;;;5049622;28;20503;-70
2022/06/27 08:50:34;;;;;;;2.90;1.20;;;22.40;99.90;;;;;;5049670;28;21001;-70
2022/06/27 08:53:01;;;;;;;1.70;1.00;;;22.30;99.90;;;;;;5067729;28;20467;-70
2022/06/27 08:55:27;;;;;;;4.20;1.27;;;22.40;99.90;;;;;;5067945;28;20859;-70
2022/06/27 08:57:53;;;;;;;2.80;1.20;;;22.60;99.90;;;;;;5048823;28;20419;-71
2022/06/27 09:00:19;;;;;;;2.20;1.20;;;23.10;99.90;;;;;;5067917;28;20435;-71
2022/06/27 09:02:44;;;;;;;1.20;1.00;;;23.30;99.90;;;;;;5067712;28;20940;-70
2022/06/27 09:05:26;;;;;;;1.20;1.10;;;23.50;99.90;;;;;;5067533;28;20479;-70
2022/06/27 09:07:52;;;;;;;4.30;1.00;;;23.40;99.90;;;;;;5067506;28;20185;-70
2022/06/27 09:10:29;;;;;;;3.27;1.87;;;23.30;99.90;;;;;;5049467;28;20875;-70
2022/06/27 09:12:58;;;;;;;1.73;1.10;;;23.30;99.90;;;;;;5049140;28;20466;-70
2022/06/27 09:15:40;;;;;;;2.13;1.40;;;23.20;99.90;;;;;;5067515;28;20425;-70
2022/06/27 09:18:08;;;;;;;1.10;1.00;;;23.00;99.90;;;;;;5067083;28;20442;-70
2022/06/27 09:20:49;;;;;;;2.40;1.07;;;23.00;99.90;;;;;;5049483;28;20922;-70
2022/06/27 09:26:21;;;;;;;2.90;1.30;;;23.20;99.90;;;;;;5067186;28;20427;-70
2022/06/27 09:29:04;;;;;;;4.83;1.30;;;23.20;99.90;;;;;;5067021;28;20444;-70
2022/06/27 09:31:42;;;;;;;1.77;1.10;;;23.00;99.90;;;;;;5067250;28;20463;-71
2022/06/27 09:34:23;;;;;;;4.13;1.77;;;22.90;99.90;;;;;;5067264;28;20444;-70
2022/06/27 09:36:54;;;;;;;1.53;1.00;;;22.80;99.90;;;;;;5048990;28;20790;-70
2022/06/27 09:39:29;;;;;;;2.40;1.00;;;22.90;99.90;;;;;;5048751;28;20443;-70
2022/06/27 09:42:01;;;;;;;5.70;1.10;;;23.00;99.90;;;;;;5067225;28;20415;-71
2022/06/27 09:44:47;;;;;;;4.40;1.30;;;23.00;99.90;;;;;;5067025;28;20422;-71
2022/06/27 09:47:25;;;;;;;2.53;1.00;;;23.00;99.90;;;;;;5066918;28;20425;-70
2022/06/27 09:49:52;;;;;;;1.83;1.30;;;23.10;99.90;;;;;;5048472;28;20508;-70
2022/06/27 09:52:21;;;;;;;1.60;1.50;;;23.20;99.90;;;;;;5066728;28;20473;-70
2022/06/27 09:54:48;;;;;;;3.67;1.13;;;23.20;99.90;;;;;;5049047;28;20457;-70
2022/06/27 09:57:15;;;;;;;1.13;1.03;;;23.40;99.90;;;;;;5066836;28;20417;-70
2022/06/27 09:59:42;;;;;;;1.40;1.00;;;23.90;99.90;;;;;;5066647;28;20507;-70
2022/06/27 10:02:08;;;;;;;2.43;1.10;;;24.60;99.90;;;;;;5048830;28;20588;-70
2022/06/27 10:04:36;;;;;;;1.83;1.30;;;24.80;99.90;;;;;;5066733;28;21127;-70
2022/06/27 10:07:06;;;;;;;4.23;0.90;;;25.00;99.90;;;;;;5048297;28;20935;-70
2022/06/27 10:09:35;;;;;;;1.60;1.00;;;25.00;99.90;;;;;;5070759;28;20452;-70
2022/06/27 10:12:20;;;;;;;2.73;1.50;;;25.00;99.90;;;;;;5053260;28;20555;-69
2022/06/27 10:14:46;;;;;;;2.63;1.53;;;24.90;99.90;;;;;;5052329;28;20452;-70
2022/06/27 10:17:15;;;;;;;2.50;1.20;;;24.80;99.90;;;;;;5052537;28;20431;-70
2022/06/27 10:20:00;;;;;;;1.40;1.00;;;24.50;99.90;;;;;;5070599;28;20205;-70
2022/06/27 10:22:26;;;;;;;3.73;1.23;;;24.20;99.90;;;;;;5070563;28;20482;-70
2022/06/27 10:24:52;;;;;;;2.50;1.57;;;24.10;99.90;;;;;;5070645;28;20424;-70
2022/06/27 10:27:31;;;;;;;1.17;1.00;;;24.10;99.90;;;;;;5052381;28;20643;-70
2022/06/27 10:29:59;;;;;;;1.73;0.87;;;24.10;99.90;;;;;;5070329;28;20196;-70
2022/06/27 10:32:40;;;;;;;2.50;1.00;;;24.10;99.90;;;;;;5070367;28;20453;-70
2022/06/27 10:35:09;;;;;;;6.40;1.10;;;23.90;99.90;;;;;;5052188;28;20419;-70
2022/06/27 10:37:36;;;;;;;3.30;1.50;;;23.80;99.90;;;;;;5070277;28;20417;-70
2022/06/27 10:40:20;;;;;;;2.60;1.30;;;23.60;99.90;;;;;;5070169;28;20600;-70
2022/06/27 10:42:46;;;;;;;1.70;1.30;;;23.50;99.90;;;;;;5052101;28;20473;-70
2022/06/27 10:45:20;;;;;;;2.53;1.57;;;23.40;99.90;;;;;;5051969;28;20419;-70
2022/06/27 10:47:57;;;;;;;2.23;0.87;;;23.30;99.90;;;;;;5070221;28;20331;-70
2022/06/27 10:50:26;;;;;;;3.10;1.30;;;23.30;99.90;;;;;;5069924;28;20418;-70
2022/06/27 10:53:25;;;;;;;1.27;1.10;;;23.30;99.90;;;;;;5051951;28;20475;-71
2022/06/27 10:55:52;;;;;;;2.23;0.90;;;23.50;99.90;;;;;;5069943;28;20806;-70
2022/06/27 10:58:22;;;;;;;1.73;1.37;;;23.70;99.90;;;;;;5069878;28;20550;-70
2022/06/27 11:00:49;;;;;;;1.80;1.20;;;23.60;99.90;;;;;;5069854;28;20448;-70
2022/06/27 11:03:23;;;;;;;1.77;1.00;;;23.50;99.90;;;;;;5069881;28;20509;-70
2022/06/27 11:05:58;;;;;;;4.97;1.70;;;23.30;99.90;;;;;;5051670;28;20515;-70
2022/06/27 11:08:25;;;;;;;3.20;1.30;;;23.10;99.90;;;;;;5069702;28;20443;-70
2022/06/27 11:10:51;;;;;;;1.80;1.27;;;22.90;99.90;;;;;;5069788;28;20415;-71
2022/06/27 11:13:42;;;;;;;1.40;1.30;;;22.80;99.90;;;;;;5069583;28;20966;-70
2022/06/27 11:16:19;;;;;;;4.33;1.80;;;22.60;99.90;;;;;;5069526;28;20424;-70
2022/06/27 11:18:47;;;;;;;2.77;1.63;;;22.30;99.90;;;;;;5069308;28;20429;-70
2022/06/27 11:21:19;;;;;;;1.50;1.40;;;22.30;99.90;;;;;;5069175;28;20448;-70
2022/06/27 11:23:52;;;;;;;3.17;1.40;;;22.20;99.90;;;;;;5069662;28;20471;-70
2022/06/27 11:26:20;;;;;;;2.10;1.30;;;22.20;99.90;;;;;;5051519;28;20826;-70
2022/06/27 11:34:15;;;;;;;1.50;1.40;;;21.90;99.90;;;;;;5070094;28;20440;-70
2022/06/27 11:36:41;;;;;;;4.20;1.60;;;21.90;99.90;;;;;;5070430;28;20494;-70
2022/06/27 11:39:07;;;;;;;1.87;1.20;;;21.90;99.90;;;;;;5063932;28;20887;-71
2022/06/27 11:41:37;;;;;;;1.20;1.10;;;21.90;99.90;;;;;;5093386;28;20487;-70
2022/06/27 11:44:04;;;;;;;3.87;1.50;;;21.80;99.90;;;;;;5085091;28;20183;-70
2022/06/27 11:46:45;;;;;;;2.30;1.20;;;21.80;99.90;;;;;;5069936;28;20857;-70
2022/06/27 11:49:15;;;;;;;5.77;1.40;;;21.70;99.90;;;;;;5068915;28;20460;-70
2022/06/27 11:51:44;;;;;;;1.67;1.27;;;21.60;99.90;;;;;;5068636;28;20999;-70
2022/06/27 11:54:15;;;;;;;3.33;1.20;;;21.60;99.90;;;;;;5068710;28;20409;-70
2022/06/27 11:56:43;;;;;;;1.67;1.10;;;21.50;99.90;;;;;;5067977;28;20417;-70
2022/06/27 11:59:11;;;;;;;2.63;1.27;;;21.50;99.90;;;;;;5034287;28;20969;-70
2022/06/27 12:01:53;;;;;;;1.47;1.37;;;21.50;99.90;;;;;;5068620;28;20872;-71
2022/06/27 12:04:40;;;;;;;8.00;1.90;;;21.50;99.90;;;;;;5068496;28;20458;-70
2022/06/27 12:07:09;;;;;;;1.07;0.97;;;21.50;99.90;;;;;;5067794;28;20512;-70
2022/06/27 12:09:49;;;;;;;1.67;1.00;;;21.40;99.90;;;;;;5050033;28;20914;-70
2022/06/27 12:12:20;;;;;;;2.00;1.50;;;21.40;99.90;;;;;;5068291;28;21029;-70
2022/06/27 12:14:51;;;;;;;3.50;1.77;;;21.40;99.90;;;;;;5050211;28;20452;-70
2022/06/27 12:17:17;;;;;;;2.00;1.80;;;21.40;99.90;;;;;;5068417;28;20446;-70
2022/06/27 12:19:43;;;;;;;2.90;1.87;;;21.40;99.90;;;;;;5068172;28;20438;-70
2022/06/27 12:22:18;;;;;;;1.70;1.43;;;21.30;99.90;;;;;;5033423;28;20483;-71
2022/06/27 12:24:45;;;;;;;2.10;1.90;;;21.30;99.90;;;;;;5068222;28;20418;-71
2022/06/27 12:27:10;;;;;;;5.17;2.07;;;21.20;99.90;;;;;;5068358;28;20490;-71
2022/06/27 12:29:36;;;;;;;2.40;2.17;;;21.20;99.90;;;;;;5033316;28;20950;-71
2022/06/27 12:32:02;;;;;;;3.40;1.73;;;21.20;99.90;;;;;;5066748;28;20214;-71
2022/06/27 12:34:28;;;;;;;2.97;2.20;;;21.10;99.90;;;;;;5067627;28;20532;-71
2022/06/27 12:36:54;;;;;;;4.10;2.63;;;21.10;99.90;;;;;;5049790;28;20423;-71
2022/06/27 12:39:20;;;;;;;5.20;2.17;;;21.10;99.90;;;;;;5032923;28;20437;-71
2022/06/27 12:41:46;;;;;;;2.77;1.80;;;21.00;99.90;;;;;;5032791;28;20436;-71
2022/06/27 12:44:12;;;;;;;5.50;2.27;;;21.10;99.90;;;;;;5067658;28;20510;-71
2022/06/27 12:46:38;;;;;;;2.60;2.00;;;21.10;99.90;;;;;;5049422;28;20219;-70
2022/06/27 12:49:03;;;;;;;3.23;2.97;;;21.20;99.90;;;;;;5067546;28;20206;-71
2022/06/27 12:51:29;;;;;;;2.90;1.60;;;21.20;99.90;;;;;;5032832;28;20482;-70
2022/06/27 12:53:56;;;;;;;1.93;1.83;;;21.20;99.90;;;;;;5049634;28;20271;-71
2022/06/27 12:56:22;;;;;;;2.33;2.13;;;21.30;99.90;;;;;;5067448;28;20507;-70
2022/06/27 12:58:49;;;;;;;2.10;2.00;;;21.40;99.90;;;;;;5067310;28;20441;-71
2022/06/27 13:01:15;;;;;;;3.03;2.30;;;21.40;99.90;;;;;;5067159;28;20765;-71
2022/06/27 13:03:42;;;;;;;4.43;2.60;;;21.80;99.90;;;;;;5067338;28;20923;-71